createdAt,value
2018-08-20T00:02:37.012Z,6.87
2018-08-20T00:07:29.599Z,7.63
2018-08-20T00:12:22.268Z,6.97
2018-08-20T00:17:14.946Z,6.50
2018-08-20T00:22:07.448Z,7.40
2018-08-20T00:27:01.627Z,6.77
2018-08-20T00:31:54.089Z,6.73
2018-08-20T00:36:47.768Z,7.10
2018-08-20T00:41:40.238Z,6.90
2018-08-20T00:46:32.791Z,6.90
2018-08-20T00:51:25.292Z,7.60
2018-08-20T00:56:17.799Z,7.33
2018-08-20T01:01:10.308Z,7.00
2018-08-20T01:06:02.972Z,7.20
2018-08-20T01:10:55.548Z,6.60
2018-08-20T01:15:48.068Z,6.90
2018-08-20T01:20:40.601Z,6.50
2018-08-20T01:25:33.084Z,7.20
2018-08-20T01:30:25.585Z,6.70
2018-08-20T01:35:24.886Z,6.97
2018-08-20T01:40:17.348Z,6.47
2018-08-20T01:45:09.939Z,6.67
2018-08-20T01:50:02.467Z,7.13
2018-08-20T01:54:55.003Z,6.97
2018-08-20T01:59:47.536Z,6.93
2018-08-20T02:04:40.049Z,7.10
2018-08-20T02:09:32.557Z,6.97
2018-08-20T02:14:25.016Z,7.00
2018-08-20T02:19:17.511Z,7.33
2018-08-20T02:24:10.121Z,6.93
2018-08-20T02:29:02.596Z,7.10
2018-08-20T02:33:55.084Z,7.23
2018-08-20T02:38:47.736Z,7.33
2018-08-20T02:43:40.259Z,7.40
2018-08-20T02:48:32.743Z,6.63
2018-08-20T02:53:25.297Z,7.23
2018-08-20T02:58:17.775Z,7.47
2018-08-20T03:03:10.268Z,7.17
2018-08-20T03:08:02.752Z,7.77
2018-08-20T03:12:55.193Z,8.60
2018-08-20T03:17:47.699Z,8.37
2018-08-20T03:22:40.225Z,7.83
2018-08-20T03:27:32.677Z,7.83
2018-08-20T03:32:25.158Z,8.20
2018-08-20T03:37:18.097Z,8.67
2018-08-20T03:42:10.651Z,9.27
2018-08-20T03:47:03.169Z,8.87
2018-08-20T03:51:55.687Z,9.33
2018-08-20T03:56:48.240Z,9.23
2018-08-20T04:01:40.738Z,9.83
2018-08-20T04:06:33.274Z,9.37
2018-08-20T04:11:25.768Z,9.77
2018-08-20T04:16:18.262Z,9.80
2018-08-20T04:21:10.810Z,10.23
2018-08-20T04:26:03.374Z,9.97
2018-08-20T04:30:55.972Z,10.70
2018-08-20T04:35:48.528Z,10.77
2018-08-20T04:40:41.054Z,10.93
2018-08-20T04:45:33.622Z,10.37
2018-08-20T04:50:26.353Z,10.73
2018-08-20T04:55:18.727Z,11.47
2018-08-20T05:00:11.616Z,11.57
2018-08-20T05:05:04.189Z,11.57
2018-08-20T05:09:56.842Z,11.63
2018-08-20T05:14:49.368Z,11.70
2018-08-20T05:19:41.883Z,10.67
2018-08-20T05:24:34.416Z,10.27
2018-08-20T05:29:27.050Z,10.80
2018-08-20T05:34:19.465Z,10.13
2018-08-20T05:39:11.950Z,10.10
2018-08-20T05:44:04.492Z,11.10
2018-08-20T05:48:57.060Z,9.87
2018-08-20T05:53:49.526Z,10.60
2018-08-20T05:58:42.039Z,9.80
2018-08-20T06:03:34.638Z,11.27
2018-08-20T06:08:27.152Z,9.37
2018-08-20T06:13:19.695Z,10.27
2018-08-20T06:18:12.204Z,12.60
2018-08-20T06:23:05.342Z,11.73
2018-08-20T06:27:57.898Z,11.23
2018-08-20T06:32:50.371Z,9.77
2018-08-20T06:37:42.899Z,9.60
2018-08-20T06:42:35.556Z,10.20
2018-08-20T06:47:28.039Z,9.27
2018-08-20T06:52:20.529Z,8.50
2018-08-20T06:57:13.044Z,9.50
2018-08-20T07:02:05.606Z,9.87
2018-08-20T07:06:58.185Z,9.40
2018-08-20T07:11:50.720Z,9.50
2018-08-20T07:16:43.140Z,8.83
2018-08-20T07:21:35.627Z,10.03
2018-08-20T07:26:28.358Z,9.50
2018-08-20T07:31:33.869Z,8.93
2018-08-20T07:36:26.557Z,8.40
2018-08-20T07:41:19.166Z,9.10
2018-08-20T07:46:11.836Z,8.47
2018-08-20T07:51:04.280Z,8.20
2018-08-20T07:55:56.868Z,8.70
2018-08-20T08:00:49.413Z,8.10
2018-08-20T08:05:41.936Z,7.80
2018-08-20T08:10:34.643Z,6.50
2018-08-20T08:15:27.357Z,6.83
2018-08-20T08:20:19.985Z,7.17
2018-08-20T08:25:12.537Z,6.77
2018-08-20T08:30:11.237Z,6.67
2018-08-20T08:35:04.541Z,6.73
2018-08-20T08:39:57.063Z,7.70
2018-08-20T08:44:49.714Z,6.80
2018-08-20T08:49:42.545Z,6.57
2018-08-20T08:54:35.158Z,6.50
2018-08-20T08:59:27.811Z,6.83
2018-08-20T09:04:20.292Z,6.20
2018-08-20T09:09:13.075Z,5.40
2018-08-20T09:14:05.596Z,5.03
2018-08-20T09:18:58.146Z,5.30
2018-08-20T09:23:50.646Z,5.30
2018-08-20T09:28:43.221Z,6.00
2018-08-20T09:33:35.826Z,5.33
2018-08-20T09:38:28.339Z,5.20
2018-08-20T09:43:20.926Z,5.30
2018-08-20T09:48:13.470Z,6.07
2018-08-20T09:53:05.960Z,6.00
2018-08-20T09:57:58.415Z,5.50
2018-08-20T10:02:51.406Z,5.30
2018-08-20T10:07:44.469Z,5.50
2018-08-20T10:12:36.964Z,5.43
2018-08-20T10:17:29.517Z,5.27
2018-08-20T10:22:21.986Z,5.47
2018-08-20T10:27:14.591Z,5.20
2018-08-20T10:32:07.095Z,4.73
2018-08-20T10:36:59.612Z,4.47
2018-08-20T10:41:52.104Z,5.03
2018-08-20T10:46:44.646Z,4.97
2018-08-20T10:51:37.142Z,4.87
2018-08-20T10:56:30.412Z,4.40
2018-08-20T11:01:23.009Z,4.33
2018-08-20T11:06:16.408Z,3.93
2018-08-20T11:11:08.943Z,5.00
2018-08-20T11:16:01.435Z,4.90
2018-08-20T11:20:53.936Z,4.80
2018-08-20T11:25:46.469Z,4.90
2018-08-20T11:30:38.953Z,4.80
2018-08-20T11:35:31.467Z,4.47
2018-08-20T11:40:24.034Z,4.50
2018-08-20T11:45:16.709Z,3.40
2018-08-20T11:50:09.803Z,3.80
2018-08-20T11:55:02.256Z,3.47
2018-08-20T11:59:54.717Z,3.40
2018-08-20T12:04:47.386Z,3.20
2018-08-20T12:09:39.815Z,3.10
2018-08-20T12:14:32.324Z,2.90
2018-08-20T12:19:24.993Z,3.20
2018-08-20T12:24:17.588Z,2.80
2018-08-20T12:29:10.071Z,2.70
2018-08-20T12:34:02.491Z,2.70
2018-08-20T12:38:54.925Z,2.40
2018-08-20T12:43:47.514Z,2.50
2018-08-20T12:48:40.085Z,2.53
2018-08-20T12:53:32.581Z,2.90
2018-08-20T12:58:25.076Z,2.60
2018-08-20T13:03:17.680Z,2.30
2018-08-20T13:08:10.208Z,2.73
2018-08-20T13:13:02.683Z,2.97
2018-08-20T13:17:55.175Z,3.80
2018-08-20T13:22:47.701Z,3.23
2018-08-20T13:27:40.367Z,3.50
2018-08-20T13:32:32.917Z,2.93
2018-08-20T13:37:25.582Z,2.97
2018-08-20T13:42:18.065Z,2.87
2018-08-20T13:47:10.683Z,2.77
2018-08-20T13:52:03.390Z,2.67
2018-08-20T13:56:55.883Z,2.80
2018-08-20T14:01:48.336Z,2.43
2018-08-20T14:06:40.778Z,2.30
2018-08-20T14:11:33.369Z,2.40
2018-08-20T14:16:25.952Z,2.40
2018-08-20T14:21:18.435Z,2.40
2018-08-20T14:26:11.003Z,2.33
2018-08-20T14:31:03.535Z,2.70
2018-08-20T14:35:56.036Z,2.47
2018-08-20T14:40:48.483Z,2.70
2018-08-20T14:45:46.928Z,2.90
2018-08-20T14:50:39.384Z,2.57
2018-08-20T14:55:31.830Z,2.57
2018-08-20T15:00:24.390Z,2.73
2018-08-20T15:05:16.917Z,2.50
2018-08-20T15:10:09.612Z,2.70
2018-08-20T15:15:02.423Z,3.40
2018-08-20T15:19:54.823Z,2.90
2018-08-20T15:24:47.322Z,2.63
2018-08-20T15:29:39.845Z,2.60
2018-08-20T15:34:32.281Z,2.40
2018-08-20T15:39:24.778Z,2.47
2018-08-20T15:44:17.798Z,2.33
2018-08-20T15:49:10.300Z,2.10
2018-08-20T15:54:02.891Z,2.00
2018-08-20T15:58:55.529Z,2.47
2018-08-20T16:03:48.040Z,2.63
2018-08-20T16:08:40.631Z,2.40
2018-08-20T16:13:33.296Z,2.30
2018-08-20T16:18:25.916Z,2.20
2018-08-20T16:23:18.642Z,2.33
2018-08-20T16:28:11.138Z,2.20
2018-08-20T16:33:03.785Z,2.60
2018-08-20T16:37:56.336Z,2.30
2018-08-20T16:42:48.937Z,2.30
2018-08-20T16:47:41.521Z,2.57
2018-08-20T16:52:34.068Z,2.20
2018-08-20T16:57:26.631Z,2.73
2018-08-20T17:02:24.589Z,2.70
2018-08-20T17:07:17.081Z,3.07
2018-08-20T17:12:09.545Z,2.80
2018-08-20T17:17:02.091Z,2.87
2018-08-20T17:21:54.624Z,2.87
2018-08-20T17:26:47.360Z,3.27
2018-08-20T17:31:39.907Z,3.50
2018-08-20T17:36:32.381Z,3.33
2018-08-20T17:41:24.868Z,3.00
2018-08-20T17:46:17.761Z,3.13
2018-08-20T17:51:12.963Z,2.97
2018-08-20T17:56:05.485Z,3.60
2018-08-20T18:00:58.122Z,3.00
2018-08-20T18:05:55.623Z,3.10
2018-08-20T18:10:48.470Z,3.00
2018-08-20T18:15:41.013Z,2.80
2018-08-20T18:20:38.279Z,3.10
2018-08-20T18:25:35.515Z,2.93
2018-08-20T18:30:28.095Z,3.37
2018-08-20T18:35:26.046Z,3.27
2018-08-20T18:40:18.537Z,3.13
2018-08-20T18:45:11.090Z,3.50
2018-08-20T18:50:03.669Z,3.20
2018-08-20T18:54:57.295Z,2.90
2018-08-20T18:59:50.207Z,3.37
2018-08-20T19:04:47.567Z,3.27
2018-08-20T19:09:40.748Z,3.50
2018-08-20T19:14:33.298Z,3.20
2018-08-20T19:19:28.002Z,2.90
2018-08-20T19:24:20.594Z,3.60
2018-08-20T19:29:26.864Z,3.30
2018-08-20T19:34:19.375Z,3.30
2018-08-20T19:39:11.797Z,3.50
2018-08-20T19:44:04.329Z,3.30
2018-08-20T19:49:03.200Z,3.50
2018-08-20T19:53:55.676Z,3.60
2018-08-20T19:58:48.216Z,3.40
2018-08-20T20:03:42.764Z,3.25
2018-08-20T20:08:35.330Z,3.23
2018-08-20T20:13:27.866Z,3.20
2018-08-20T20:18:20.562Z,2.80
2018-08-20T20:23:13.163Z,3.10
2018-08-20T20:28:06.380Z,2.80
2018-08-20T20:32:58.832Z,2.63
2018-08-20T20:37:51.379Z,2.70
2018-08-20T20:42:43.860Z,2.53
2018-08-20T20:47:36.436Z,2.77
2018-08-20T20:52:28.931Z,2.80
2018-08-20T20:57:21.489Z,2.20
2018-08-20T21:02:13.977Z,2.27
2018-08-20T21:07:06.551Z,2.02
2018-08-20T21:11:59.242Z,2.30
2018-08-20T21:16:51.666Z,2.10
2018-08-20T21:21:44.124Z,2.40
2018-08-20T21:26:36.611Z,2.20
2018-08-20T21:31:36.122Z,2.30
2018-08-20T21:36:28.691Z,1.90
2018-08-20T21:41:22.914Z,2.07
2018-08-20T21:46:15.816Z,2.03
2018-08-20T21:51:14.716Z,2.10
2018-08-20T21:56:09.007Z,2.30
2018-08-20T22:01:01.560Z,2.25
2018-08-20T22:05:54.089Z,2.13
2018-08-20T22:10:46.745Z,2.00
2018-08-20T22:15:39.282Z,1.90
2018-08-20T22:20:31.812Z,2.00
2018-08-20T22:25:24.315Z,1.80
2018-08-20T22:30:17.056Z,1.80
2018-08-20T22:35:14.287Z,1.67
2018-08-20T22:40:06.776Z,1.77
2018-08-20T22:44:59.319Z,1.87
2018-08-20T22:49:51.819Z,1.70
2018-08-20T22:54:44.358Z,2.17
2018-08-20T22:59:36.836Z,1.87
2018-08-20T23:04:29.603Z,1.93
2018-08-20T23:09:31.352Z,1.80
2018-08-20T23:14:23.799Z,1.80
2018-08-20T23:19:16.347Z,1.60
2018-08-20T23:24:09.414Z,1.90
2018-08-20T23:29:01.897Z,1.67
2018-08-20T23:33:54.541Z,1.73
2018-08-20T23:38:47.028Z,1.80
2018-08-20T23:43:42.580Z,1.70
2018-08-20T23:48:35.094Z,1.50
2018-08-20T23:53:28.121Z,1.53
2018-08-20T23:58:20.909Z,1.60
